Ephrata, WA (98823)

7:44 PM PST on February 05, 2016 (GMT -0800)
CloudviewEphrata | | Change Station
CLOSE
Current Station
Personal Weather Station
Location: Ephrata, WA
Elevation: 1263 ft
Nearby Weather Stations

Elev 1263 ft 47.34 °N, 119.54 °W | Updated 27 seconds ago

Mostly Cloudy
Mostly Cloudy
36.0 °F
Feels Like 36 °F
N
0.0
Wind Variable Wind from North
Gusts 0.0 mph

Today
High -- | Low -- °F
--% Chance of Precip.
Yesterday
High -- | Low -- °F
Precip. -- in
Pressure 30.11 in
Visibility 5.0 miles
Clouds Mostly Cloudy 10000 ft
Windchill 36 °F
Dew Point 34 °F
Humidity 91%
Rainfall 0.07 in
Snow Depth Not available.
7:19 AM 5:05 PM
Waning Crescent, 8% visible
METAR KEPH 060253Z AUTO 00000KT 5SM BR BKN100 02/01 A3007 RMK AO2 SLP196 T00170011 58035
Pressure 30.11 in
Visibility 5.0 miles
Clouds Mostly Cloudy 10000 ft
Windchill 36 °F
Dew Point 34 °F
Humidity 91%
Rainfall 0.07 in
Snow Depth Not available.
7:19 AM 5:05 PM
Waning Crescent, 8% visible
METAR KEPH 060253Z AUTO 00000KT 5SM BR BKN100 02/01 A3007 RMK AO2 SLP196 T00170011 58035

10-Day Weather Forecast

Almanac

Astronomy

Feb. 05, 2016 Rise Set
Actual Time
Civil Twilight
Nautical Twilight
Astronomical Twilight
Moon
Length of Visible Light
Length of Day
Tomorrow will be .
, % of the Moon is Illuminated

Today's Extremes

State Highs State Lows

Community

WunderPhotos

Upload Photos

1,890,922 photos uploaded!

WunderBlog® & News

Nearby

Air Quality

  Air Quality AQ Index Pollutant
Not available.

Snow Depth

Station Depth Elevation

Earthquake Activity

City Distance Mag. Time & Date
Minimum magnitude displayed is 2.5.

Coastal Water Temperatures

Place Temperature

Stations

Nearby Weather Stations

Station Location Temp. Windchill Dew Point Humidity Wind Precip. Elev Updated Type
                   

Watches & Warnings

There are currently no watches in effect.